地図

経路データ

SID SEASON NUMBER BASIN SUBBASIN NAME ISO_TIME NATURE LAT LON WMO_WIND WMO_PRES WMO_AGENCY TRACK_TYPE DIST2LAND LANDFALL IFLAG USA_AGENCY USA_ATCF_ID USA_LAT USA_LON USA_RECORD USA_STATUS USA_WIND USA_PRES USA_SSHS USA_R34_NE USA_R34_SE USA_R34_SW USA_R34_NW USA_R50_NE USA_R50_SE USA_R50_SW USA_R50_NW USA_R64_NE USA_R64_SE USA_R64_SW USA_R64_NW USA_POCI USA_ROCI USA_RMW USA_EYE TOKYO_LAT TOKYO_LON TOKYO_GRADE TOKYO_WIND TOKYO_PRES TOKYO_R50_DIR TOKYO_R50_LONG TOKYO_R50_SHORT TOKYO_R30_DIR TOKYO_R30_LONG TOKYO_R30_SHORT TOKYO_LAND CMA_LAT CMA_LON CMA_CAT CMA_WIND CMA_PRES HKO_LAT HKO_LON HKO_CAT HKO_WIND HKO_PRES NEWDELHI_LAT NEWDELHI_LON NEWDELHI_GRADE NEWDELHI_WIND NEWDELHI_PRES NEWDELHI_CI NEWDELHI_DP NEWDELHI_POCI REUNION_LAT REUNION_LON REUNION_TYPE REUNION_WIND REUNION_PRES REUNION_TNUM REUNION_CI REUNION_RMW REUNION_R34_NE REUNION_R34_SE REUNION_R34_SW REUNION_R34_NW REUNION_R50_NE REUNION_R50_SE REUNION_R50_SW REUNION_R50_NW REUNION_R64_NE REUNION_R64_SE REUNION_R64_SW REUNION_R64_NW BOM_LAT BOM_LON BOM_TYPE BOM_WIND BOM_PRES BOM_TNUM BOM_CI BOM_RMW BOM_R34_NE BOM_R34_SE BOM_R34_SW BOM_R34_NW BOM_R50_NE BOM_R50_SE BOM_R50_SW BOM_R50_NW BOM_R64_NE BOM_R64_SE BOM_R64_SW BOM_R64_NW BOM_ROCI BOM_POCI BOM_EYE BOM_POS_METHOD BOM_PRES_METHOD NADI_LAT NADI_LON NADI_CAT NADI_WIND NADI_PRES WELLINGTON_LAT WELLINGTON_LON WELLINGTON_WIND WELLINGTON_PRES DS824_LAT DS824_LON DS824_STAGE DS824_WIND DS824_PRES TD9636_LAT TD9636_LON TD9636_STAGE TD9636_WIND TD9636_PRES TD9635_LAT TD9635_LON TD9635_WIND TD9635_PRES TD9635_ROCI NEUMANN_LAT NEUMANN_LON NEUMANN_CLASS NEUMANN_WIND NEUMANN_PRES MLC_LAT MLC_LON MLC_CLASS MLC_WIND MLC_PRES USA_GUST BOM_GUST BOM_GUST_PER REUNION_GUST REUNION_GUST_PER USA_SEAHGT USA_SEARAD_NE USA_SEARAD_SE USA_SEARAD_SW USA_SEARAD_NW STORM_SPEED STORM_DIR
1946076S13167 1946 22 SP MM NOT_NAMED 1946-03-17 00:00:00 TS -13.4000 167.000 main 151 123 O________OO___ jtwc_sh SH181946 -13.4000 167.000 -1 -13.4000 167.000 TC -13.4000 167.000 2 10 245
1946076S13167 1946 22 SP MM NOT_NAMED 1946-03-17 03:00:00 TS -13.6038 166.542 main 123 109 P________PP___ SH181946 -13.5952 166.535 -1 -13.5952 166.535 TC -13.6211 166.557 2 10 245
1946076S13167 1946 22 SP MM NOT_NAMED 1946-03-17 06:00:00 TS -13.8112 166.110 main 114 110 O________OP___ jtwc_sh SH181946 -13.8000 166.100 -1 -13.8000 166.100 TC -13.8335 166.131 2 9 242
1946076S13167 1946 22 SP MM NOT_NAMED 1946-03-17 09:00:00 TS -14.0196 165.726 main 124 116 P________PP___ SH181946 -14.0149 165.720 -1 -14.0149 165.720 TC -14.0290 165.739 2 8 241
1946076S13167 1946 22 SP MM NOT_NAMED 1946-03-17 12:00:00 TS -14.2000 165.400 main 136 136 O________OO___ jtwc_sh SH181946 -14.2000 165.400 -1 -14.2000 165.400 TC -14.2000 165.400 2 7 243
1946076S13167 1946 22 SP MM NOT_NAMED 1946-03-17 15:00:00 TS -14.3189 165.131 main 160 160 P________PP___ SH181946 -14.3074 165.135 -1 -14.3074 165.135 TC -14.3420 165.123 2 5 246
1946076S13167 1946 22 SP MM NOT_NAMED 1946-03-17 18:00:00 TS -14.4214 164.895 main 177 177 O________OP___ jtwc_sh SH181946 -14.4000 164.900 -1 -14.4000 164.900 TC -14.4643 164.884 2 5 243
1946076S13167 1946 22 SP MM NOT_NAMED 1946-03-17 21:00:00 TS -14.5548 164.661 main 194 194 P________PP___ SH181946 -14.5424 164.665 -1 -14.5424 164.665 TC -14.5795 164.654 2 6 240
1946076S13167 1946 22 SP MM NOT_NAMED 1946-03-18 00:00:00 TS -14.7000 164.400 main 226 226 O________OO___ jtwc_sh SH181946 -14.7000 164.400 -1 -14.7000 164.400 TC -14.7000 164.400 2 6 243
1946076S13167 1946 22 SP MM NOT_NAMED 1946-03-18 03:00:00 TS -14.8463 164.064 main 258 258 P________PP___ SH181946 -14.8500 164.065 -1 -14.8500 164.065 TC -14.8389 164.063 2 7 246
1946076S13167 1946 22 SP MM NOT_NAMED 1946-03-18 06:00:00 TS -14.9951 163.700 main 301 301 O________OP___ jtwc_sh SH181946 -15.0000 163.700 -1 -15.0000 163.700 TC -14.9853 163.700 2 8 247
1946076S13167 1946 22 SP MM NOT_NAMED 1946-03-18 09:00:00 TS -15.1463 163.336 main 345 345 P________PP___ SH181946 -15.1500 163.335 -1 -15.1500 163.335 TC -15.1389 163.338 2 7 246
1946076S13167 1946 22 SP MM NOT_NAMED 1946-03-18 12:00:00 TS -15.3000 163.000 main 380 380 O________OO___ jtwc_sh SH181946 -15.3000 163.000 -1 -15.3000 163.000 TC -15.3000 163.000 2 7 242
1946076S13167 1946 22 SP MM NOT_NAMED 1946-03-18 15:00:00 TS -15.4508 162.732 main 415 415 P________PP___ SH181946 -15.4424 162.735 -1 -15.4424 162.735 TC -15.4675 162.725 2 6 237
1946076S13167 1946 22 SP MM NOT_NAMED 1946-03-18 18:00:00 TS -15.6140 162.492 main 438 438 O________OP___ jtwc_sh SH181946 -15.6000 162.500 -1 -15.6000 162.500 TC -15.6421 162.477 2 6 232
1946076S13167 1946 22 SP MM NOT_NAMED 1946-03-18 21:00:00 TS -15.8069 162.252 main 462 462 P________PP___ SH181946 -15.7999 162.257 -1 -15.7999 162.257 TC -15.8207 162.241 2 6 231
1946076S13167 1946 22 SP MM NOT_NAMED 1946-03-19 00:00:00 TS -16.0000 162.000 main 497 497 O________OO___ jtwc_sh SH181946 -16.0000 162.000 -1 -16.0000 162.000 TC -16.0000 162.000 2 6 236
1946076S13167 1946 22 SP MM NOT_NAMED 1946-03-19 03:00:00 TS -16.1570 161.708 main 514 514 P________PP___ SH181946 -16.1500 161.700 -1 -16.1500 161.700 TC -16.1709 161.724 2 6 241
1946076S13167 1946 22 SP MM NOT_NAMED 1946-03-19 06:00:00 TS -16.3142 161.414 main 521 511 O________OP___ jtwc_sh SH181946 -16.3000 161.400 -1 -16.3000 161.400 TC -16.3425 161.442 2 6 237
1946076S13167 1946 22 SP MM NOT_NAMED 1946-03-19 09:00:00 TS -16.5009 161.150 main 521 510 P________PP___ SH181946 -16.4924 161.142 -1 -16.4924 161.142 TC -16.5178 161.165 2 6 232
1946076S13167 1946 22 SP MM NOT_NAMED 1946-03-19 12:00:00 TS -16.7000 160.900 main 516 514 O________OO___ jtwc_sh SH181946 -16.7000 160.900 -1 -16.7000 160.900 TC -16.7000 160.900 2 6 230
1946076S13167 1946 22 SP MM NOT_NAMED 1946-03-19 15:00:00 TS -16.8989 160.647 main 521 513 P________PP___ SH181946 -16.9000 160.642 -1 -16.9000 160.642 TC -16.8967 160.656 2 6 230
1946076S13167 1946 22 SP MM NOT_NAMED 1946-03-19 18:00:00 TS -17.0999 160.409 main 521 513 O________OP___ jtwc_sh SH181946 -17.1000 160.400 -1 -17.1000 160.400 TC -17.0998 160.427 2 6 227
1946076S13167 1946 22 SP MM NOT_NAMED 1946-03-19 21:00:00 TS -17.3060 160.198 main 522 522 P________PP___ SH181946 -17.3075 160.192 -1 -17.3075 160.192 TC -17.3030 160.210 2 3 234
1946076S13167 1946 22 SP MM NOT_NAMED 1946-03-19 23:00:00 TS -17.2324 160.213 1002 bom main 529 521 P_____O__PP___ SH181946 -17.4390 160.064 -1 -16.0000 161.200 1002 -17.4390 160.064 TC -17.4354 160.069 2 7 28
1946076S13167 1946 22 SP MM NOT_NAMED 1946-03-20 00:00:00 TS -17.0043 160.371 main 529 529 O_____P__OO___ jtwc_sh SH181946 -17.5000 160.000 -1 -16.1345 161.137 -17.5000 160.000 TC -17.5000 160.000 2 2 42
1946076S13167 1946 22 SP MM NOT_NAMED 1946-03-20 03:00:00 TS -17.1267 160.316 main 529 514 P_____P__PP___ SH181946 -17.6500 159.800 -1 -16.5371 160.947 -17.6500 159.800 TC -17.6780 159.793 2 4 203
1946076S13167 1946 22 SP MM NOT_NAMED 1946-03-20 06:00:00 TS -17.3510 160.218 main 514 507 O_____P__OP___ jtwc_sh SH181946 -17.8000 159.600 -1 -16.9360 160.755 -17.8000 159.600 TC -17.8499 159.592 2 6 205
1946076S13167 1946 22 SP MM NOT_NAMED 1946-03-20 09:00:00 TS -17.6462 160.062 main 509 502 P_____P__PP___ SH181946 -17.9925 159.400 -1 -17.3287 160.561 -17.9925 159.400 TC -18.0218 159.396 2 7 208
1946076S13167 1946 22 SP EA NOT_NAMED 1946-03-20 11:00:00 TS -17.8604 159.931 main 507 507 P_____P__PP___ SH181946 -18.1307 159.267 -1 -17.5856 160.430 -18.1307 159.267 TC -18.1395 159.265 2 7 210
1946076S13167 1946 22 SP EA NOT_NAMED 1946-03-20 12:00:00 TS -17.9666 159.867 main 501 499 O_____P__OO___ jtwc_sh SH181946 -18.2000 159.200 -1 -17.7124 160.364 -18.2000 159.200 TC -18.2000 159.200 2 7 209
1946076S13167 1946 22 SP EA NOT_NAMED 1946-03-20 15:00:00 TS -18.2856 159.684 main 503 503 P_____P__PP___ SH181946 -18.4000 159.000 -1 -18.0845 160.162 -18.4000 159.000 TC -18.3886 159.012 2 7 209
1946076S13167 1946 22 SP EA NOT_NAMED 1946-03-20 18:00:00 TS -18.5908 159.500 main 508 504 O_____P__OP___ jtwc_sh SH181946 -18.6000 158.800 -1 -18.4423 159.956 -18.6000 158.800 TC -18.5848 158.822 2 7 212
1946076S13167 1946 22 SP EA NOT_NAMED 1946-03-20 21:00:00 TS -18.8736 159.304 main 516 516 P_____P__PP___ SH181946 -18.8000 158.607 -1 -18.7833 159.745 -18.8000 158.607 TC -18.7886 158.621 2 7 214
1946076S13167 1946 22 SP EA NOT_NAMED 1946-03-20 23:00:00 TS -19.0512 159.167 997 bom main 520 520 P_____O__PP___ SH181946 -18.9333 158.472 -1 -19.0000 159.600 997 -18.9333 158.472 TC -18.9287 158.477 2 7 217
1946076S13167 1946 22 SP EA NOT_NAMED 1946-03-21 00:00:00 TS -19.1378 159.096 main 530 527 O_____P__OO___ jtwc_sh SH181946 -19.0000 158.400 -1 -19.1049 159.527 -19.0000 158.400 TC -19.0000 158.400 2 7 220
1946076S13167 1946 22 SP EA NOT_NAMED 1946-03-21 03:00:00 TS -19.3882 158.875 main 542 542 P_____P__PP___ SH181946 -19.1925 158.165 -1 -19.4059 159.302 -19.1925 158.165 TC -19.2220 158.130 2 7 221
1946076S13167 1946 22 SP EA NOT_NAMED 1946-03-21 06:00:00 TS -19.6314 158.641 main 569 568 O_____P__OP___ jtwc_sh SH181946 -19.4000 157.900 -1 -19.6878 159.073 -19.4000 157.900 TC -19.4503 157.843 2 7 223
1946076S13167 1946 22 SP EA NOT_NAMED 1946-03-21 09:00:00 TS -19.8826 158.392 main 586 586 P_____P__PP___ SH181946 -19.6500 157.593 -1 -19.9522 158.838 -19.6500 157.593 TC -19.6783 157.559 2 7 223
1946076S13167 1946 22 SP EA NOT_NAMED 1946-03-21 11:00:00 TS -20.0460 158.228 main 606 605 P_____P__PP___ SH181946 -19.8198 157.391 -1 -20.1195 158.679 -19.8198 157.391 TC -19.8272 157.382 2 7 223
1946076S13167 1946 22 SP EA NOT_NAMED 1946-03-21 12:00:00 TS -20.1247 158.153 main 605 605 O_____P__OO___ jtwc_sh SH181946 -19.9000 157.300 -1 -20.2006 158.599 -19.9000 157.300 TC -19.9000 157.300 2 6 220
1946076S13167 1946 22 SP EA NOT_NAMED 1946-03-21 15:00:00 TS -20.3394 157.964 main 625 625 P_____P__PP___ SH181946 -20.1074 157.077 -1 -20.4346 158.357 -20.1074 157.077 TC -20.1029 157.100 2 6 221
1946076S13167 1946 22 SP EA NOT_NAMED 1946-03-21 18:00:00 TS -20.5459 157.762 main 646 620 O_____P__OP___ jtwc_sh SH181946 -20.3000 156.900 -1 -20.6557 158.112 -20.3000 156.900 TC -20.2997 156.927 2 6 225
1946076S13167 1946 22 SP EA NOT_NAMED 1946-03-21 21:00:00 TS -20.7635 157.516 main 620 598 P_____P__PP___ SH181946 -20.4999 156.750 -1 -20.8656 157.865 -20.4999 156.750 TC -20.4966 156.766 2 7 229
1946076S13167 1946 22 SP EA NOT_NAMED 1946-03-21 23:00:00 TS -20.9087 157.310 990 bom main 598 582 P_____O__PP___ SH181946 -20.6333 156.653 -1 -21.0000 157.700 990 -20.6333 156.653 TC -20.6311 156.657 2 8 235
1946076S13167 1946 22 SP EA NOT_NAMED 1946-03-22 00:00:00 TS -20.9809 157.188 main 582 538 O_____P__OO___ jtwc_sh SH181946 -20.7000 156.600 -1 -21.0680 157.616 -20.7000 156.600 TC -20.7000 156.600 2 9 242
1946076S13167 1946 22 SP EA NOT_NAMED 1946-03-22 03:00:00 TS -21.1860 156.747 main 531 488 P_____P__PP___ SH181946 -20.8925 156.407 -1 -21.2622 157.364 -20.8925 156.407 TC -20.9219 156.395 2 10 245
1946076S13167 1946 22 SP EA NOT_NAMED 1946-03-22 06:00:00 TS -21.3914 156.249 main 481 439 O_____P__OP___ jtwc_sh SH181946 -21.1000 156.200 -1 -21.4445 157.109 -21.1000 156.200 TC -21.1501 156.185 2 10 245
1946076S13167 1946 22 SP EA NOT_NAMED 1946-03-22 09:00:00 TS -21.6174 155.764 main 439 397 P_____P__PP___ SH181946 -21.3500 155.993 -1 -21.6178 156.853 -21.3500 155.993 TC -21.3782 155.983 2 10 244
1946076S13167 1946 22 SP EA NOT_NAMED 1946-03-22 11:00:00 TS -21.7651 155.442 main 397 392 P_____P__PP___ SH181946 -21.5198 155.861 -1 -21.7299 156.683 -21.5198 155.861 TC -21.5271 155.858 2 10 244
1946076S13167 1946 22 SP EA NOT_NAMED 1946-03-22 12:00:00 TS -21.8339 155.279 main 392 348 O_____P__OO___ jtwc_sh SH181946 -21.6000 155.800 -1 -21.7852 156.599 -21.6000 155.800 TC -21.6000 155.800 2 10 248
1946076S13167 1946 22 SP EA NOT_NAMED 1946-03-22 15:00:00 TS -22.0113 154.778 main 348 307 P_____P__PP___ SH181946 -21.8075 155.635 -1 -21.9500 156.347 -21.8075 155.635 TC -21.7948 155.661 2 10 249
1946076S13167 1946 22 SP EA NOT_NAMED 1946-03-22 18:00:00 TS -22.1751 154.318 main 307 286 O_____P__OP___ jtwc_sh SH181946 -22.0000 155.500 -1 -22.1152 156.099 -22.0000 155.500 TC -21.9848 155.542 2 9 247
1946076S13167 1946 22 SP EA NOT_NAMED 1946-03-22 21:00:00 TS -22.3418 153.919 main 286 260 P_____P__PP___ SH181946 -22.1924 155.407 -1 -22.2840 155.857 -22.1924 155.407 TC -22.1823 155.427 2 7 242
1946076S13167 1946 22 SP EA NOT_NAMED 1946-03-22 23:00:00 TS -22.4623 153.724 990 bom main 260 260 P_____O__PP___ SH181946 -22.3276 155.342 -1 -22.4000 155.700 990 -22.3276 155.342 TC -22.3244 155.344 2 6 232
1946076S13167 1946 22 SP EA NOT_NAMED 1946-03-23 00:00:00 TS -22.5285 153.659 main 260 236 O_____P__OO___ jtwc_sh SH181946 -22.4000 155.300 -1 -22.4545 155.620 -22.4000 155.300 TC -22.4000 155.300 2 5 205
1946076S13167 1946 22 SP EA NOT_NAMED 1946-03-23 03:00:00 TS -22.7509 153.578 main 225 203 P_____P__PP___ SH181946 -22.6350 155.108 -1 -22.6173 155.381 -22.6350 155.108 TC -22.6657 155.136 2 5 184
1946076S13167 1946 22 SP EA NOT_NAMED 1946-03-23 06:00:00 TS -22.9936 153.616 main 203 183 O_____P__OP___ jtwc_sh SH181946 -22.9000 154.900 -1 -22.7826 155.148 -22.9000 154.900 TC -22.9501 154.958 2 5 169
1946076S13167 1946 22 SP EA NOT_NAMED 1946-03-23 09:00:00 TS -23.2493 153.686 main 183 161 P_____P__PP___ SH181946 -23.2075 154.742 -1 -22.9553 154.922 -23.2075 154.742 TC -23.2344 154.776 2 5 164
1946076S13167 1946 22 SP EA NOT_NAMED 1946-03-23 11:00:00 TS -23.4119 153.745 main 161 153 P_____P__PP___ SH181946 -23.4088 154.647 -1 -23.0769 154.776 -23.4088 154.647 TC -23.4147 154.658 2 5 162
1946076S13167 1946 22 SP EA NOT_NAMED 1946-03-23 12:00:00 TS -23.4841 153.770 main 153 143 O_____P__OO___ jtwc_sh SH181946 -23.5000 154.600 -1 -23.1402 154.705 -23.5000 154.600 TC -23.5000 154.600 2 4 160
1946076S13167 1946 22 SP EA NOT_NAMED 1946-03-23 15:00:00 TS -23.6554 153.837 main 132 127 P_____P__PP___ SH181946 -23.7150 154.450 -1 -23.3420 154.497 -23.7150 154.450 TC -23.6971 154.446 2 4 161
1946076S13167 1946 22 SP EA NOT_NAMED 1946-03-23 18:00:00 TS -23.8175 153.896 main 127 108 O_____P__OP___ jtwc_sh SH181946 -23.9000 154.300 -1 -23.5656 154.300 -23.9000 154.300 TC -23.8773 154.299 2 4 165
1946076S13167 1946 22 SP EA NOT_NAMED 1946-03-23 21:00:00 TS -24.0051 153.944 main 108 97 P_____P__PP___ SH181946 -24.0775 154.150 -1 -23.8159 154.115 -24.0775 154.150 TC -24.0690 154.152 2 4 171
1946076S13167 1946 22 SP EA NOT_NAMED 1946-03-23 23:00:00 TS -24.1583 153.956 988 bom main 97 97 P_____O__PP___ SH181946 -24.2162 154.050 -1 -24.0000 154.000 988 4 -24.2162 154.050 TC -24.2169 154.052 2 5 0
1946076S13167 1946 22 SP EA NOT_NAMED 1946-03-24 00:00:00 TS -24.2494 153.951 main 97 64 O_____P__OO___ jtwc_sh SH181946 -24.3000 154.000 -1 -24.0982 153.937 -24.3000 154.000 TC -24.3000 154.000 2 6 188
1946076S13167 1946 22 SP EA NOT_NAMED 1946-03-24 03:00:00 TS -24.5842 153.896 main 64 41 P_____P__PP___ SH181946 -24.6275 153.857 -1 -24.4131 153.757 -24.6275 153.857 TC -24.6110 153.824 2 7 191
1946076S13167 1946 22 SP EA NOT_NAMED 1946-03-24 06:00:00 TS -24.9598 153.798 main 40 32 O_____P__OP___ jtwc_sh SH181946 -25.0000 153.700 -1 -24.7537 153.591 -25.0000 153.700 TC -24.9626 153.643 2 8 194
1946076S13167 1946 22 SP EA NOT_NAMED 1946-03-24 09:00:00 TS -25.3253 153.685 main 41 37 P_____P__PP___ SH181946 -25.3500 153.500 -1 -25.1142 153.444 -25.3500 153.500 TC -25.3329 153.465 2 8 197
1946076S13167 1946 22 SP EA NOT_NAMED 1946-03-24 11:00:00 TS -25.5661 153.598 main 41 41 P_____P__PP___ SH181946 -25.5833 153.364 -1 -25.3628 153.359 -25.5833 153.364 TC -25.5793 153.353 2 8 198
1946076S13167 1946 22 SP EA NOT_NAMED 1946-03-24 12:00:00 TS -25.6824 153.551 main 45 29 O_____P__OO___ jtwc_sh SH181946 -25.7000 153.300 -1 -25.4888 153.321 -25.7000 153.300 TC -25.7000 153.300 2 7 201
1946076S13167 1946 22 SP EA NOT_NAMED 1946-03-24 15:00:00 TS -26.0248 153.400 main 29 29 P_____P__PP___ SH181946 -26.0575 153.135 -1 -25.8716 153.225 -26.0575 153.135 TC -26.0468 153.155 2 7 202
1946076S13167 1946 22 SP EA NOT_NAMED 1946-03-24 16:00:00 TS -26.1376 153.349 992 bom main 19 19 P_____O__PP___ SH181946 -26.1746 153.087 -1 -26.0000 153.200 992 -26.1746 153.087 TC -26.1580 153.111 2 7 202
1946076S13167 1946 22 SP EA NOT_NAMED 1946-03-24 18:00:00 TS -26.3619 153.253 main 19 9 O_____P__OP___ jtwc_sh SH181946 -26.4000 153.000 -1 -26.2461 153.138 992 -26.4000 153.000 TC -26.3749 153.028 2 7 197
1946076S13167 1946 22 SP EA NOT_NAMED 1946-03-24 21:00:00 TS -26.6987 153.162 main 9 0 P_____P__PP___ SH181946 -26.6624 152.826 -1 -26.6295 153.088 992 -26.7100 152.893 TC -26.6906 152.911 2 7 190
1946076S13167 1946 22 SP EA NOT_NAMED 1946-03-24 23:00:00 TS -26.9414 153.145 992 bom main 0 0 P_____O__PP___ SH181946 -26.8683 152.780 -1 -26.9000 153.100 992 -26.9043 152.830 TC -26.8972 152.837 2 8 176
1946076S13167 1946 22 SP EA NOT_NAMED 1946-03-25 00:00:00 TS -27.0836 153.184 main 0 0 O_____P__OO___ jtwc_sh SH181946 -27.0000 152.800 -1 -27.0411 153.123 -27.0000 152.800 TC -27.0000 152.800 2 10 166
1946076S13167 1946 22 SP EA NOT_NAMED 1946-03-25 03:00:00 TS -27.5949 153.326 main 0 0 P_____P_______ SH181946 -27.5628 153.096 -1 -27.4873 153.263 TC 2 11 165
1946076S13167 1946 22 SP EA NOT_NAMED 1946-03-25 06:00:00 TS -28.1398 153.495 main 9 0 O_____P_______ jtwc_sh SH191946 -28.2000 153.500 -1 -27.9641 153.498 2 12 162
1946076S13167 1946 22 SP EA NOT_NAMED 1946-03-25 09:00:00 TS -28.6855 153.733 main 9 9 P_____P_______ SH191946 -28.7722 153.743 -1 -28.4664 153.815 2 12 157
1946076S13167 1946 22 SP EA NOT_NAMED 1946-03-25 11:00:00 TS -29.0423 153.937 main 31 44 P_____P_______ SH191946 -29.1305 153.905 -1 -28.8131 154.066 2 12 151
1946076S13167 1946 22 SP EA NOT_NAMED 1946-03-25 12:00:00 TS -29.2026 154.061 main 58 58 O_____P_______ jtwc_sh SH191946 -29.3000 154.000 -1 -28.9894 154.202 12 144
1946076S13167 1946 22 SP EA NOT_NAMED 1946-03-25 15:00:00 TS -29.6829 154.469 main 111 111 P_____P_______ SH191946 -29.7680 154.364 -1 -29.5277 154.645 12 142
1946076S13167 1946 22 SP EA NOT_NAMED 1946-03-25 18:00:00 TS -30.1528 154.930 main 157 157 O_____P_______ jtwc_sh SH191946 -30.2000 154.800 -1 -30.0763 155.131 13 138
1946076S13167 1946 22 SP EA NOT_NAMED 1946-03-25 21:00:00 NR -30.6265 155.463 main 225 225 ______P_______ SH191946 -1 -30.6302 155.647 13 137
1946076S13167 1946 22 SP EA NOT_NAMED 1946-03-25 23:00:00 NR -30.9500 155.800 998 bom main 257 ______O_______ SH191946 -1 -31.0000 156.000 998 13 138

デジタル台風データ・検索

IBTrACS Databaseについて

本データベースは、米国NOAAが公開する1842年以降の世界の熱帯低気圧のベストトラックデータアーカイブInternational Best Track Archive for Climate Stewardship (IBTrACS)を、ウェブで閲覧しやすい形式に変換したものです。

最終更新日:2021-10-08